AirNav   Air Wisconsin Up To $57,000 Bonus
 
 538 users online  

3S2 Swans Field Airport
Dixfield, Maine, USA

GOING TO DIXFIELD?


FAA INFORMATION EFFECTIVE 02 DECEMBER 2021

Location

FAA Identifier: 3S2
Lat/Long: 44-30-50.9000N 070-24-24.5000W
44-30.848333N 070-24.408333W
44.5141389,-70.4068056
(estimated)
Elevation: 418.4 ft. / 128 m (estimated)
Variation: 18W (1985)
From city: 3 miles SE of DIXFIELD, ME
Time zone: UTC -5 (UTC -4 during Daylight Saving Time)
Zip code: 04224

Airport Operations

Airport use: Open to the public
Activation date: 05/1971
Control tower: no
ARTCC: BOSTON CENTER
FSS: BANGOR FLIGHT SERVICE STATION
NOTAMs facility: BGR (NOTAM-D service available)
Attendance: UNATNDD
Wind indicator: yes
Segmented circle: no

Airport Communications

CTAF: 122.9
WX AWOS-AV at 0B1 (18 nm W): 122.9 (207-512-2516)

Nearby radio navigation aids

VOR radial/distance  VOR name  Freq  Var
AUGr312/28.6AUGUSTA VOR/DME114.9518W

 
NDB name  Hdg/Dist  Freq  Var  ID
RANGELEY168/29.222118WRQM .-. --.- --

Airport Services

Parking: hangars and tiedowns
Airframe service: NONE
Powerplant service: NONE

Runway Information

Runway 12/30

Dimensions: 1808 x 40 ft. / 551 x 12 m
Surface: turf, in good condition
RUNWAY 12  RUNWAY 30
Latitude: 44-30.924372N44-30.773688N
Longitude: 070-24.588318W070-24.229843W
Elevation: 417.9 ft.418.4 ft.
Traffic pattern: leftleft
Runway heading: 139 magnetic, 121 true319 magnetic, 301 true
Touchdown point: yes, no lightsyes, no lights
Obstructions: 55 ft. trees, 65 ft. right of centerline
+40 FT-50 FT TREES FM THR TO 400 FT SOUTHEAST, 35 FT LEFT OF CNTRLN.
8 ft. trees
+4 FT BERM EOR ACRS RWY BNTH TREES; +12 FT DIRT PILE 20 FT FM THR ON CNTRLN.

Airport Ownership and Management from official FAA records

Ownership: Privately-owned
Owner: ROYAL SWAN
1308 CANTON PT. ROAD
DIXFIELD, ME 04224
Phone (207) 491-5025
Manager: ROYAL SWAN
1308 CANTON PT. ROAD
DIXFIELD, ME 04224
Phone (207) 491-5025

Airport Operational Statistics

Aircraft based on the field: 7
Single engine airplanes: 7
    
Aircraft operations: avg 43/month *
98% local general aviation
2% transient general aviation
* for 12-month period ending 06 August 2019

Additional Remarks

CTC AMGR FOR RWY CONDS IN WINTER: 207-491-5025.
ACCESS ROADWAY 45 FT FM RWY 12/30, CNTRLN ALG NORTH SIDE.
PVT ROADWAY, +10 FT, CROSSES RWY 12/30 APRX 700 FT FM NW THR.
WILDLIFE ON OR INVOF ARPT.
FOR CD CTC PORTLAND APCH AT 207-874-7320, WHEN APCH CLSD CTC BOSTON ARTCC AT 603-879-6859.

Instrument Procedures

There are no published instrument procedures at 3S2.

Some nearby airports with instrument procedures:

0B1 - Bethel Regional Airport (18 nm W)
81B - Oxford County Regional Airport (22 nm S)
KOWK - Central Maine /Norridgewock Airport (26 nm NE)
KLEW - Auburn/Lewiston Municipal Airport (28 nm S)
M57 - Rangeley Lake Seaplane Base (29 nm N)
 
Loc | Ops | Rwys | IFR | FBO | Links
Com | Nav | Svcs | Stats | Notes
Area around 3S2 (Swans Field Airport)
 
Road maps at: MapQuest Bing Google
 
Aerial photo
WARNING: Photo may not be current or correct
Aerial photo of 3S2 (Swans Field Airport)
Do you have a better or more recent aerial photo of Swans Field Airport that you would like to share? If so, please send us your photo.

 
Sectional chart

 
Airport distance calculator
Flying to Swans Field Airport? Find the distance to fly.

From to 3S2

Sunrise and sunset
Times for 07-Dec-2021
 Local
(UTC-5)
 Zulu
(UTC)
Morning civil twilight06:3211:32
Sunrise07:0512:05
Sunset16:0121:01
Evening civil twilight16:3421:34

Current date and time
Zulu (UTC)  07-Dec-2021 06:32:36
Local (UTC-5)  07-Dec-2021 01:32:36
 
METAR
KAUG 
29nm SE 
070553Z AUTO 30011G16KT 10SM FEW033 BKN070 OVC095 05/02 A2955 RMK AO2 RAE15B42E53 SLP011 P0000 60015 T00500022 10128 20050 51049
KLEW 
29nm S 
070556Z AUTO 26009KT 10SM FEW047 OVC110 06/M01 A2957 RMK AO2 SLP021 60008 T00611006 10122 20056 51050
K8B0 
30nm NW 
062135Z AUTO 17009G21KT 140V200 10SM OVC005 06/05 A2946 RMK AO2
KWVL 
32nm E 
070556Z AUTO 29011G17KT 10SM BKN065 BKN075 OVC090 05/00 A2953 RMK AO2 RAE26 SLP029 P0000 60015 T00500000 10122 20044 51057
KBML 
33nm W 
070552Z AUTO 29009G22KT 230V320 10SM CLR 02/M04 A2957 RMK AO2 SLP023 60024 T00171044 10117 20017 53012
KIZG 
39nm SW 
070554Z AUTO 27014G24KT 220V290 10SM FEW055 04/M05 A2960 RMK AO2 PK WND 23027/0544 SLP027 60013 T00441050 10117 20006 53045
KMWN 
40nm W 
070550Z COR 28077G84KT 0SM -SN FZFG VV000 M10/M10 RMK PK WND 280106/00 MOD ICG 60055 4/007 931011 10017 21097
KIWI 
44nm SE 
070553Z AUTO 25003KT 10SM BKN060 OVC080 07/06 A2957 RMK AO2 RAE34 SLP014 P0001 60027 T00670056 10144 20067 53045
KHIE 
50nm W 
070552Z AUTO 25010G15KT 10SM SCT021 SCT034 BKN047 02/M01 A2962 RMK AO2 SLP037 60036 T00171011 10117 20011 53020
TAF
KAUG 
29nm SE 
070537Z 0706/0806 27006KT P6SM VCSH BKN050 FM070730 27006G15KT P6SM SCT090 FM071200 27013G25KT P6SM SCT060 FM080000 28006KT P6SM SCT100
NOTAMs
Click for the latest NOTAMs
NOTAMs are issued by the DoD/FAA and will open in a separate window not controlled by AirNav.

 

 
 

Would you like to see your business listed on this page?

 If your business provides an interesting product or service to pilots, flight crews, aircraft, or users of the Swans Field Airport, you should consider listing it here.  To start the listing process, click on the button below
 
Add a business
 

Other Pages about Swans Field Airport

Update a link
 
Copyright © AirNav, LLC. All rights reserved. Privacy Policy  Contact